createdAt,value
2018-12-15T00:00:47.782Z,30.40
2018-12-15T00:03:16.295Z,30.67
2018-12-15T00:05:44.685Z,31.60
2018-12-15T00:08:12.992Z,28.00
2018-12-15T00:10:41.374Z,30.93
2018-12-15T00:13:09.631Z,29.50
2018-12-15T00:15:38.171Z,32.30
2018-12-15T00:18:06.486Z,32.67
2018-12-15T00:20:35.341Z,34.87
2018-12-15T00:23:03.722Z,36.80
2018-12-15T00:25:32.246Z,36.73
2018-12-15T00:28:00.566Z,31.47
2018-12-15T00:30:28.947Z,33.30
2018-12-15T00:32:57.219Z,35.43
2018-12-15T00:35:25.430Z,36.13
2018-12-15T00:37:53.606Z,31.97
2018-12-15T00:40:21.822Z,36.00
2018-12-15T00:42:50.051Z,35.00
2018-12-15T00:45:18.252Z,33.00
2018-12-15T00:47:46.409Z,33.00
2018-12-15T00:50:14.552Z,36.00
2018-12-15T00:52:42.777Z,32.80
2018-12-15T00:55:10.922Z,34.43
2018-12-15T00:57:39.170Z,33.23
2018-12-15T01:00:07.463Z,33.13
2018-12-15T01:02:35.621Z,31.67
2018-12-15T01:05:04.134Z,33.33
2018-12-15T01:07:32.369Z,34.17
2018-12-15T01:10:00.533Z,33.73
2018-12-15T01:12:28.684Z,34.97
2018-12-15T01:14:56.843Z,37.93
2018-12-15T01:17:25.050Z,37.63
2018-12-15T01:19:53.180Z,29.43
2018-12-15T01:22:21.325Z,36.97
2018-12-15T01:24:49.475Z,37.43
2018-12-15T01:27:17.617Z,35.30
2018-12-15T01:29:45.768Z,35.13
2018-12-15T01:32:13.898Z,37.70
2018-12-15T01:34:42.062Z,36.77
2018-12-15T01:37:10.202Z,35.03
2018-12-15T01:39:38.351Z,39.03
2018-12-15T01:42:06.637Z,37.37
2018-12-15T01:44:34.833Z,35.93
2018-12-15T01:47:03.025Z,38.20
2018-12-15T01:49:31.181Z,34.90
2018-12-15T01:51:59.468Z,37.33
2018-12-15T01:54:27.630Z,35.00
2018-12-15T01:56:55.773Z,38.07
2018-12-15T01:59:24.003Z,37.07
2018-12-15T02:01:52.244Z,38.73
2018-12-15T02:04:20.517Z,38.70
2018-12-15T02:06:48.745Z,35.53
2018-12-15T02:09:17.046Z,38.27
2018-12-15T02:11:45.270Z,39.40
2018-12-15T02:14:13.651Z,39.50
2018-12-15T02:16:41.840Z,34.53
2018-12-15T02:19:09.982Z,39.90
2018-12-15T02:21:38.182Z,39.53
2018-12-15T02:24:06.320Z,39.53
2018-12-15T02:26:34.452Z,41.37
2018-12-15T02:29:02.675Z,37.30
2018-12-15T02:31:30.811Z,39.57
2018-12-15T02:33:59.049Z,37.20
2018-12-15T02:36:27.190Z,39.37
2018-12-15T02:38:55.336Z,36.40
2018-12-15T02:41:23.570Z,38.90
2018-12-15T02:43:51.739Z,39.47
2018-12-15T02:46:19.878Z,37.97
2018-12-15T02:48:48.042Z,40.60
2018-12-15T02:51:16.294Z,43.40
2018-12-15T02:53:44.439Z,40.60
2018-12-15T02:56:12.662Z,39.83
2018-12-15T02:58:40.809Z,37.97
2018-12-15T03:01:09.011Z,38.27
2018-12-15T03:03:37.165Z,43.33
2018-12-15T03:06:05.316Z,36.03
2018-12-15T03:08:33.537Z,41.13
2018-12-15T03:11:01.694Z,41.87
2018-12-15T03:13:29.939Z,37.23
2018-12-15T03:15:58.102Z,43.77
2018-12-15T03:18:26.348Z,38.60
2018-12-15T03:21:01.427Z,39.70
2018-12-15T03:23:29.754Z,42.83
2018-12-15T03:25:58.312Z,44.23
2018-12-15T03:28:26.564Z,41.97
2018-12-15T03:30:54.714Z,43.67
2018-12-15T03:33:22.852Z,39.23
2018-12-15T03:35:51.017Z,41.03
2018-12-15T03:38:19.174Z,46.73
2018-12-15T03:40:47.412Z,44.30
2018-12-15T03:43:15.630Z,41.90
2018-12-15T03:45:43.853Z,45.10
2018-12-15T03:48:11.991Z,38.93
2018-12-15T03:50:40.165Z,41.93
2018-12-15T03:53:08.419Z,43.43
2018-12-15T03:55:36.581Z,44.97
2018-12-15T03:58:04.887Z,43.33
2018-12-15T04:00:33.146Z,44.33
2018-12-15T04:03:01.294Z,41.77
2018-12-15T04:05:29.460Z,47.30
2018-12-15T04:07:57.614Z,42.37
2018-12-15T04:10:25.763Z,43.77
2018-12-15T04:12:54.181Z,44.30
2018-12-15T04:15:22.413Z,41.73
2018-12-15T04:17:50.636Z,41.93
2018-12-15T04:20:18.813Z,41.20
2018-12-15T04:22:47.090Z,45.33
2018-12-15T04:25:15.241Z,44.57
2018-12-15T04:27:43.387Z,41.53
2018-12-15T04:30:11.613Z,47.30
2018-12-15T04:32:45.142Z,48.57
2018-12-15T04:35:10.109Z,47.17
2018-12-15T04:37:38.267Z,42.87
2018-12-15T04:40:07.640Z,41.17
2018-12-15T04:42:35.814Z,46.90
2018-12-15T04:45:04.189Z,44.27
2018-12-15T04:47:32.472Z,49.47
2018-12-15T04:50:00.716Z,47.63
2018-12-15T04:52:28.931Z,46.67
2018-12-15T04:54:57.161Z,43.83
2018-12-15T04:57:25.328Z,46.90
2018-12-15T04:59:53.514Z,48.43
2018-12-15T05:02:21.894Z,47.87
2018-12-15T05:04:50.049Z,48.83
2018-12-15T05:07:18.185Z,48.47
2018-12-15T05:09:46.420Z,44.97
2018-12-15T05:12:14.656Z,50.20
2018-12-15T05:14:42.838Z,45.53
2018-12-15T05:17:10.977Z,47.80
2018-12-15T05:19:39.142Z,47.37
2018-12-15T05:22:07.545Z,47.47
2018-12-15T05:24:35.700Z,49.43
2018-12-15T05:27:04.460Z,48.00
2018-12-15T05:29:33.541Z,48.50
2018-12-15T05:32:01.925Z,50.77
2018-12-15T05:34:31.281Z,49.67
2018-12-15T05:36:59.477Z,49.37
2018-12-15T05:39:27.689Z,46.93
2018-12-15T05:41:55.840Z,50.80
2018-12-15T05:44:24.132Z,48.53
2018-12-15T05:46:52.290Z,51.20
2018-12-15T05:49:20.425Z,49.63
2018-12-15T05:51:48.586Z,51.00
2018-12-15T05:54:16.738Z,48.67
2018-12-15T05:56:44.886Z,52.80
2018-12-15T05:59:13.061Z,49.33
2018-12-15T06:01:41.237Z,47.40
2018-12-15T06:04:09.441Z,54.17
2018-12-15T06:06:37.686Z,46.20
2018-12-15T06:09:06.618Z,54.40
2018-12-15T06:11:34.847Z,51.00
2018-12-15T06:14:04.202Z,51.43
2018-12-15T06:16:32.717Z,51.73
2018-12-15T06:19:00.872Z,49.80
2018-12-15T06:21:29.043Z,51.60
2018-12-15T06:23:57.277Z,54.37
2018-12-15T06:26:25.450Z,50.60
2018-12-15T06:28:53.596Z,51.20
2018-12-15T06:31:21.835Z,53.53
2018-12-15T06:33:50.054Z,49.93
2018-12-15T06:36:18.320Z,52.27
2018-12-15T06:38:46.493Z,53.97
2018-12-15T06:41:14.733Z,52.07
2018-12-15T06:43:43.229Z,51.67
2018-12-15T06:46:11.465Z,53.90
2018-12-15T06:48:39.614Z,51.97
2018-12-15T06:51:07.842Z,54.93
2018-12-15T06:53:35.991Z,53.97
2018-12-15T06:56:04.153Z,54.93
2018-12-15T06:58:32.297Z,56.87
2018-12-15T07:01:00.539Z,57.67
2018-12-15T07:03:28.890Z,59.40
2018-12-15T07:05:57.959Z,59.33
2018-12-15T07:08:26.521Z,58.20
2018-12-15T07:10:54.696Z,56.77
2018-12-15T07:13:22.909Z,54.77
2018-12-15T07:15:51.147Z,60.87
2018-12-15T07:18:19.314Z,53.20
2018-12-15T07:20:47.545Z,57.87
2018-12-15T07:23:15.714Z,55.93
2018-12-15T07:25:44.209Z,57.07
2018-12-15T07:28:12.360Z,62.50
2018-12-15T07:30:40.776Z,58.20
2018-12-15T07:33:09.021Z,58.30
2018-12-15T07:35:37.185Z,55.33
2018-12-15T07:38:05.374Z,57.27
2018-12-15T07:40:33.518Z,52.17
2018-12-15T07:43:01.728Z,61.23
2018-12-15T07:45:29.882Z,65.40
2018-12-15T07:47:58.096Z,57.27
2018-12-15T07:50:26.326Z,58.30
2018-12-15T07:52:54.467Z,56.87
2018-12-15T07:55:22.842Z,55.23
2018-12-15T07:57:51.050Z,57.50
2018-12-15T08:00:19.286Z,56.53
2018-12-15T08:05:22.125Z,59.43
2018-12-15T08:07:50.318Z,52.00
2018-12-15T08:10:23.151Z,57.70
2018-12-15T08:12:56.942Z,58.23
2018-12-15T08:15:25.751Z,59.30
2018-12-15T08:17:53.970Z,60.53
2018-12-15T08:20:28.454Z,62.23
2018-12-15T08:22:56.653Z,64.40
2018-12-15T08:25:24.828Z,62.97
2018-12-15T08:27:52.982Z,57.13
2018-12-15T08:30:21.261Z,57.93
2018-12-15T08:32:49.402Z,58.43
2018-12-15T08:35:17.669Z,59.93
2018-12-15T08:37:45.904Z,65.43
2018-12-15T08:40:14.254Z,58.40
2018-12-15T08:42:42.647Z,52.27
2018-12-15T08:45:10.981Z,61.13
2018-12-15T08:47:39.120Z,57.23
2018-12-15T08:50:07.438Z,57.67
2018-12-15T08:52:35.654Z,60.37
2018-12-15T08:55:04.290Z,58.03
2018-12-15T08:57:32.511Z,56.47
2018-12-15T09:00:00.654Z,58.73
2018-12-15T09:05:03.382Z,57.97
2018-12-15T09:07:31.536Z,56.40
2018-12-15T09:10:06.466Z,58.27
2018-12-15T09:12:34.621Z,57.73
2018-12-15T09:15:02.917Z,52.73
2018-12-15T09:17:31.082Z,53.47
2018-12-15T09:19:59.315Z,50.10
2018-12-15T09:22:27.498Z,47.60
2018-12-15T09:24:55.720Z,45.50
2018-12-15T09:27:23.926Z,40.30
2018-12-15T09:29:52.094Z,42.27
2018-12-15T09:32:20.257Z,38.13
2018-12-15T09:34:48.514Z,37.07
2018-12-15T09:37:16.693Z,40.40
2018-12-15T09:39:44.919Z,38.57
2018-12-15T09:42:13.078Z,38.17
2018-12-15T09:44:41.214Z,38.07
2018-12-15T09:47:09.473Z,41.33
2018-12-15T09:49:37.712Z,39.10
2018-12-15T09:52:05.944Z,34.27
2018-12-15T09:54:34.179Z,34.47
2018-12-15T09:57:02.502Z,36.47
2018-12-15T09:59:30.709Z,33.83
2018-12-15T10:01:58.945Z,34.63
2018-12-15T10:04:27.182Z,37.10
2018-12-15T10:06:55.339Z,32.87
2018-12-15T10:09:23.495Z,35.47
2018-12-15T10:11:51.646Z,35.10
2018-12-15T10:14:19.849Z,34.27
2018-12-15T10:16:47.990Z,34.40
2018-12-15T10:19:16.153Z,34.03
2018-12-15T10:21:44.302Z,34.17
2018-12-15T10:24:12.458Z,33.17
2018-12-15T10:26:40.694Z,32.23
2018-12-15T10:29:13.095Z,28.40
2018-12-15T10:31:46.449Z,32.47
2018-12-15T10:34:14.688Z,32.90
2018-12-15T10:36:42.826Z,32.50
2018-12-15T10:39:11.135Z,31.27
2018-12-15T10:41:39.298Z,31.70
2018-12-15T10:44:07.531Z,30.93
2018-12-15T10:46:35.758Z,34.10
2018-12-15T10:49:04.065Z,29.80
2018-12-15T10:51:32.616Z,29.47
2018-12-15T10:54:14.939Z,29.70
2018-12-15T10:56:43.158Z,29.63
2018-12-15T10:59:11.309Z,29.93
2018-12-15T11:01:39.529Z,33.63
2018-12-15T11:04:07.706Z,32.07
2018-12-15T11:06:35.866Z,30.63
2018-12-15T11:09:07.374Z,31.50
2018-12-15T11:11:35.583Z,32.10
2018-12-15T11:14:03.915Z,30.77
2018-12-15T11:16:32.194Z,29.23
2018-12-15T11:19:00.526Z,30.30
2018-12-15T11:21:28.746Z,31.37
2018-12-15T11:23:56.913Z,31.67
2018-12-15T11:26:25.321Z,29.03
2018-12-15T11:28:53.562Z,33.03
2018-12-15T11:31:21.762Z,30.50
2018-12-15T11:33:49.932Z,30.27
2018-12-15T11:36:18.250Z,28.97
2018-12-15T11:38:46.405Z,33.77
2018-12-15T11:41:14.578Z,28.70
2018-12-15T11:43:42.738Z,31.20
2018-12-15T11:46:10.896Z,30.63
2018-12-15T11:48:39.204Z,29.67
2018-12-15T11:51:07.445Z,29.33
2018-12-15T11:53:35.763Z,32.37
2018-12-15T11:56:04.042Z,27.83
2018-12-15T11:58:32.279Z,29.67
2018-12-15T12:01:00.501Z,33.47
2018-12-15T12:03:28.740Z,29.97
2018-12-15T12:05:56.899Z,32.83
2018-12-15T12:08:25.105Z,30.83
2018-12-15T12:10:53.321Z,30.77
2018-12-15T12:13:21.489Z,32.33
2018-12-15T12:15:49.652Z,28.70
2018-12-15T12:18:17.845Z,28.63
2018-12-15T12:20:46.004Z,34.83
2018-12-15T12:23:14.170Z,32.50
2018-12-15T12:25:42.450Z,30.10
2018-12-15T12:28:10.599Z,29.43
2018-12-15T12:30:38.756Z,30.53
2018-12-15T12:33:07.061Z,29.13
2018-12-15T12:35:35.281Z,29.30
2018-12-15T12:38:03.538Z,29.47
2018-12-15T12:40:31.760Z,29.70
2018-12-15T12:43:00.203Z,30.63
2018-12-15T12:45:28.442Z,32.03
2018-12-15T12:47:56.592Z,33.47
2018-12-15T12:50:24.824Z,27.63
2018-12-15T12:52:53.081Z,30.90
2018-12-15T12:55:21.267Z,30.43
2018-12-15T12:57:49.422Z,27.37
2018-12-15T13:00:17.585Z,31.43
2018-12-15T13:02:45.747Z,30.40
2018-12-15T13:05:14.081Z,28.23
2018-12-15T13:07:42.324Z,28.27
2018-12-15T13:10:10.671Z,30.57
2018-12-15T13:12:38.836Z,28.57
2018-12-15T13:15:07.163Z,29.00
2018-12-15T13:17:35.459Z,29.53
2018-12-15T13:20:04.043Z,29.57
2018-12-15T13:22:32.253Z,28.43
2018-12-15T13:25:00.429Z,27.87
2018-12-15T13:27:28.668Z,29.83
2018-12-15T13:29:56.833Z,27.80
2018-12-15T13:32:26.023Z,28.93
2018-12-15T13:34:54.248Z,29.00
2018-12-15T13:37:22.476Z,28.73
2018-12-15T13:39:50.715Z,33.23
2018-12-15T13:42:18.934Z,29.43
2018-12-15T13:44:47.245Z,29.20
2018-12-15T13:47:15.398Z,31.07
2018-12-15T13:49:43.726Z,27.73
2018-12-15T13:52:12.016Z,27.57
2018-12-15T13:54:40.168Z,26.60
2018-12-15T13:57:08.377Z,27.97
2018-12-15T13:59:36.629Z,26.03
2018-12-15T14:02:04.921Z,27.70
2018-12-15T14:04:33.138Z,28.10
2018-12-15T14:07:01.322Z,29.17
2018-12-15T14:09:29.539Z,28.27
2018-12-15T14:11:57.774Z,27.83
2018-12-15T14:14:26.142Z,30.17
2018-12-15T14:16:54.325Z,30.60
2018-12-15T14:19:22.562Z,28.43
2018-12-15T14:21:50.699Z,28.70
2018-12-15T14:24:18.899Z,26.60
2018-12-15T14:26:47.145Z,30.47
2018-12-15T14:29:15.362Z,32.17
2018-12-15T14:31:43.538Z,27.47
2018-12-15T14:34:11.680Z,26.70
2018-12-15T14:36:39.834Z,28.03
2018-12-15T14:39:08.325Z,28.80
2018-12-15T14:41:36.897Z,28.67
2018-12-15T14:44:05.166Z,30.27
2018-12-15T14:46:33.394Z,28.30
2018-12-15T14:49:01.541Z,28.73
2018-12-15T14:51:29.721Z,30.37
2018-12-15T14:53:57.871Z,30.00
2018-12-15T14:56:26.130Z,28.00
2018-12-15T14:58:54.269Z,33.20
2018-12-15T15:01:22.569Z,28.67
2018-12-15T15:03:50.716Z,29.33
2018-12-15T15:06:18.945Z,28.80
2018-12-15T15:08:47.168Z,29.53
2018-12-15T15:11:15.348Z,27.30
2018-12-15T15:13:43.598Z,30.67
2018-12-15T15:16:11.902Z,28.60
2018-12-15T15:18:40.160Z,30.23
2018-12-15T15:21:08.298Z,28.03
2018-12-15T15:23:36.466Z,26.00
2018-12-15T15:26:04.860Z,26.53
2018-12-15T15:28:33.026Z,24.37
2018-12-15T15:31:01.437Z,28.97
2018-12-15T15:33:29.661Z,32.20
2018-12-15T15:35:57.824Z,25.80
2018-12-15T15:38:26.052Z,26.10
2018-12-15T15:40:54.229Z,23.67
2018-12-15T15:43:22.481Z,23.17
2018-12-15T15:45:50.634Z,27.17
2018-12-15T15:48:18.833Z,27.33
2018-12-15T15:50:46.981Z,25.70
2018-12-15T15:53:15.148Z,24.33
2018-12-15T15:55:43.369Z,24.73
2018-12-15T15:58:11.553Z,23.73
2018-12-15T16:00:46.219Z,23.87
2018-12-15T16:03:14.390Z,25.67
2018-12-15T16:05:42.574Z,22.97
2018-12-15T16:08:10.813Z,23.57
2018-12-15T16:10:41.483Z,21.57
2018-12-15T16:13:09.786Z,21.37
2018-12-15T16:15:38.141Z,21.83
2018-12-15T16:18:06.401Z,22.13
2018-12-15T16:20:34.623Z,22.27
2018-12-15T16:23:02.858Z,20.43
2018-12-15T16:25:31.073Z,20.80
2018-12-15T16:27:59.981Z,20.80
2018-12-15T16:30:28.681Z,21.10
2018-12-15T16:32:56.910Z,20.47
2018-12-15T16:35:25.038Z,19.93
2018-12-15T16:37:53.387Z,19.77
2018-12-15T16:40:21.668Z,20.20
2018-12-15T16:42:50.030Z,21.47
2018-12-15T16:45:18.184Z,20.53
2018-12-15T16:47:46.534Z,23.20
2018-12-15T16:50:14.853Z,23.97
2018-12-15T16:52:43.361Z,26.80
2018-12-15T16:55:11.937Z,21.83
2018-12-15T16:57:40.302Z,26.43
2018-12-15T17:00:13.257Z,23.70
2018-12-15T17:02:41.498Z,25.73
2018-12-15T17:05:09.814Z,25.50
2018-12-15T17:07:38.024Z,24.67
2018-12-15T17:10:07.871Z,24.73
2018-12-15T17:12:40.374Z,25.77
2018-12-15T17:15:12.627Z,26.70
2018-12-15T17:17:43.239Z,27.10
2018-12-15T17:20:14.452Z,28.57
2018-12-15T17:22:45.177Z,28.60
2018-12-15T17:25:15.280Z,28.50
2018-12-15T17:27:46.765Z,29.27
2018-12-15T17:30:17.081Z,27.77
2018-12-15T17:32:45.299Z,28.70
2018-12-15T17:35:13.578Z,30.77
2018-12-15T17:37:41.692Z,32.20
2018-12-15T17:40:10.878Z,27.97
2018-12-15T17:42:39.183Z,28.93
2018-12-15T17:45:08.024Z,29.77
2018-12-15T17:47:36.304Z,27.97
2018-12-15T17:50:04.918Z,27.93
2018-12-15T17:52:33.138Z,29.80
2018-12-15T17:55:01.363Z,27.47
2018-12-15T17:57:29.610Z,28.83
2018-12-15T17:59:57.813Z,29.00
2018-12-15T18:02:26.122Z,28.47
2018-12-15T18:04:54.363Z,30.73
2018-12-15T18:07:22.497Z,31.83
2018-12-15T18:09:50.798Z,30.40
2018-12-15T18:12:19.010Z,27.87
2018-12-15T18:14:47.223Z,25.60
2018-12-15T18:17:15.379Z,25.90
2018-12-15T18:19:43.646Z,22.27
2018-12-15T18:22:11.898Z,28.27
2018-12-15T18:24:40.054Z,25.63
2018-12-15T18:27:08.241Z,25.03
2018-12-15T18:29:36.457Z,25.50
2018-12-15T18:32:04.693Z,23.53
2018-12-15T18:34:32.844Z,28.33
2018-12-15T18:37:01.150Z,24.63
2018-12-15T18:39:29.374Z,24.43
2018-12-15T18:41:57.522Z,24.17
2018-12-15T18:44:25.729Z,21.67
2018-12-15T18:46:53.962Z,25.60
2018-12-15T18:49:23.147Z,22.47
2018-12-15T18:51:51.373Z,22.33
2018-12-15T18:54:19.808Z,27.47
2018-12-15T18:56:49.120Z,25.07
2018-12-15T18:59:18.324Z,25.93
2018-12-15T19:01:47.252Z,28.20
2018-12-15T19:04:16.656Z,23.93
2018-12-15T19:06:45.959Z,23.43
2018-12-15T19:09:14.365Z,24.60
2018-12-15T19:11:42.754Z,23.57
2018-12-15T19:14:11.542Z,23.97
2018-12-15T19:16:40.067Z,25.50
2018-12-15T19:19:08.704Z,23.63
2018-12-15T19:21:37.336Z,20.97
2018-12-15T19:24:06.409Z,21.83
2018-12-15T19:26:35.300Z,22.23
2018-12-15T19:29:03.713Z,19.37
2018-12-15T19:31:32.152Z,21.27
2018-12-15T19:34:00.679Z,19.93
2018-12-15T19:36:29.214Z,20.27
2018-12-15T19:38:57.939Z,19.80
2018-12-15T19:41:27.776Z,19.57
2018-12-15T19:43:56.124Z,18.33
2018-12-15T19:46:25.042Z,19.20
2018-12-15T19:48:53.448Z,21.50
2018-12-15T19:51:22.067Z,22.87
2018-12-15T19:53:50.808Z,22.43
2018-12-15T19:56:19.917Z,21.33
2018-12-15T19:58:48.792Z,23.10
2018-12-15T20:01:17.888Z,21.10
2018-12-15T20:03:46.781Z,21.73
2018-12-15T20:06:15.611Z,21.23
2018-12-15T20:08:44.263Z,19.10
2018-12-15T20:11:14.171Z,20.97
2018-12-15T20:13:43.454Z,19.83
2018-12-15T20:16:13.859Z,21.33
2018-12-15T20:18:43.653Z,19.30
2018-12-15T20:21:15.742Z,21.43
2018-12-15T20:23:45.123Z,17.93
2018-12-15T20:26:14.185Z,19.30
2018-12-15T20:28:42.819Z,21.67
2018-12-15T20:31:11.841Z,20.90
2018-12-15T20:33:40.738Z,20.93
2018-12-15T20:36:08.975Z,21.73
2018-12-15T20:38:37.143Z,21.80
2018-12-15T20:41:05.293Z,20.97
2018-12-15T20:43:33.544Z,20.43
2018-12-15T20:46:01.706Z,17.73
2018-12-15T20:48:29.881Z,21.13
2018-12-15T20:50:58.042Z,18.53
2018-12-15T20:53:26.205Z,19.90
2018-12-15T20:55:54.423Z,17.17
2018-12-15T20:58:22.666Z,19.93
2018-12-15T21:00:50.884Z,18.37
2018-12-15T21:03:20.402Z,19.60
2018-12-15T21:05:48.585Z,23.20
2018-12-15T21:08:16.804Z,20.03
2018-12-15T21:10:45.089Z,19.63
2018-12-15T21:13:13.310Z,18.10
2018-12-15T21:15:44.585Z,18.27
2018-12-15T21:18:12.800Z,20.87
2018-12-15T21:20:41.138Z,20.83
2018-12-15T21:23:09.438Z,18.53
2018-12-15T21:25:37.721Z,19.87
2018-12-15T21:28:05.859Z,21.30
2018-12-15T21:30:34.139Z,18.60
2018-12-15T21:33:02.279Z,21.13
2018-12-15T21:35:30.509Z,22.63
2018-12-15T21:37:58.732Z,21.03
2018-12-15T21:40:26.937Z,19.77
2018-12-15T21:42:55.186Z,22.47
2018-12-15T21:45:23.489Z,19.50
2018-12-15T21:47:57.406Z,20.07
2018-12-15T21:50:21.849Z,20.37
2018-12-15T21:52:50.085Z,21.00
2018-12-15T21:55:18.383Z,19.53
2018-12-15T21:57:46.593Z,19.23
2018-12-15T22:00:14.897Z,19.90
2018-12-15T22:02:43.182Z,18.60
2018-12-15T22:05:11.421Z,20.70
2018-12-15T22:07:39.557Z,16.70
2018-12-15T22:10:08.850Z,20.00
2018-12-15T22:12:37.066Z,18.50
2018-12-15T22:15:05.797Z,17.93
2018-12-15T22:17:34.069Z,19.97
2018-12-15T22:20:02.302Z,18.00
2018-12-15T22:22:30.702Z,20.40
2018-12-15T22:24:58.945Z,19.03
2018-12-15T22:27:27.117Z,18.50
2018-12-15T22:29:55.363Z,18.87
2018-12-15T22:32:23.578Z,18.90
2018-12-15T22:34:51.805Z,18.67
2018-12-15T22:37:19.962Z,20.27
2018-12-15T22:39:48.156Z,18.73
2018-12-15T22:42:22.710Z,21.30
2018-12-15T22:44:50.904Z,17.80
2018-12-15T22:47:19.156Z,17.43
2018-12-15T22:49:47.356Z,19.53
2018-12-15T22:52:15.507Z,18.13
2018-12-15T22:54:43.721Z,18.10
2018-12-15T22:57:11.879Z,16.73
2018-12-15T22:59:40.017Z,19.17
2018-12-15T23:02:08.162Z,21.47
2018-12-15T23:04:36.313Z,19.63
2018-12-15T23:07:04.539Z,19.43
2018-12-15T23:09:32.835Z,17.17
2018-12-15T23:12:01.108Z,19.20
2018-12-15T23:14:29.349Z,19.57
2018-12-15T23:16:57.490Z,17.77
2018-12-15T23:19:25.719Z,20.80
2018-12-15T23:21:53.930Z,18.50
2018-12-15T23:24:22.193Z,20.93
2018-12-15T23:26:50.398Z,19.87
2018-12-15T23:29:18.644Z,18.33
2018-12-15T23:31:46.857Z,20.23
2018-12-15T23:34:15.008Z,19.50
2018-12-15T23:36:43.214Z,22.17
2018-12-15T23:39:11.434Z,20.53
2018-12-15T23:41:39.590Z,20.23
2018-12-15T23:44:07.888Z,22.13
2018-12-15T23:46:36.117Z,19.20
2018-12-15T23:49:04.341Z,18.00
2018-12-15T23:51:32.468Z,20.93
2018-12-15T23:54:00.695Z,21.20
2018-12-15T23:56:28.830Z,22.43
2018-12-15T23:58:56.984Z,26.63
